createdAt,value
2023-02-09T00:01:25.652Z,15.33
2023-02-09T00:03:53.948Z,15.10
2023-02-09T00:06:22.917Z,17.30
2023-02-09T00:08:51.045Z,14.13
2023-02-09T00:11:22.073Z,16.57
2023-02-09T00:13:48.735Z,16.63
2023-02-09T00:16:16.809Z,16.30
2023-02-09T00:18:44.680Z,16.70
2023-02-09T00:21:12.997Z,16.97
2023-02-09T00:23:42.018Z,16.73
2023-02-09T00:26:11.755Z,14.10
2023-02-09T00:28:40.705Z,16.83
2023-02-09T00:31:09.147Z,17.30
2023-02-09T00:33:37.407Z,14.87
2023-02-09T00:36:06.948Z,19.10
2023-02-09T00:38:35.368Z,16.40
2023-02-09T00:41:03.593Z,15.87
2023-02-09T00:43:31.228Z,13.67
2023-02-09T00:46:00.600Z,16.30
2023-02-09T00:48:28.450Z,20.33
2023-02-09T00:50:56.178Z,12.13
2023-02-09T00:53:24.743Z,17.67
2023-02-09T00:55:52.795Z,14.83
2023-02-09T00:58:20.895Z,15.30
2023-02-09T01:00:49.762Z,15.97
2023-02-09T01:03:18.901Z,14.57
2023-02-09T01:05:46.611Z,14.20
2023-02-09T01:08:14.219Z,14.50
2023-02-09T01:10:42.301Z,13.97
2023-02-09T01:13:09.906Z,15.17
2023-02-09T01:15:40.403Z,15.63
2023-02-09T01:18:08.264Z,12.93
2023-02-09T01:20:37.347Z,12.80
2023-02-09T01:23:05.067Z,14.10
2023-02-09T01:25:32.646Z,14.23
2023-02-09T01:28:00.367Z,14.70
2023-02-09T01:30:28.494Z,14.13
2023-02-09T01:32:56.324Z,17.17
2023-02-09T01:35:23.868Z,18.87
2023-02-09T01:37:52.808Z,23.70
2023-02-09T01:40:20.462Z,25.23
2023-02-09T01:42:48.054Z,27.13
2023-02-09T01:45:24.164Z,19.73
2023-02-09T01:47:56.394Z,14.83
2023-02-09T01:50:26.175Z,16.17
2023-02-09T01:52:55.593Z,15.43
2023-02-09T01:55:25.821Z,16.27
2023-02-09T01:57:56.866Z,19.63
2023-02-09T02:00:25.459Z,21.80
2023-02-09T02:02:55.703Z,16.57
2023-02-09T02:05:23.930Z,17.03
2023-02-09T02:07:57.850Z,17.27
2023-02-09T02:10:25.806Z,16.37
2023-02-09T02:12:54.392Z,17.00
2023-02-09T02:15:23.488Z,15.10
2023-02-09T02:18:08.606Z,16.53
2023-02-09T02:21:02.734Z,13.93
2023-02-09T02:23:37.773Z,17.03
2023-02-09T02:26:28.628Z,18.40
2023-02-09T02:29:17.608Z,16.63
2023-02-09T02:32:00.236Z,19.63
2023-02-09T02:34:34.584Z,13.90
2023-02-09T02:37:09.070Z,16.87
2023-02-09T02:39:40.786Z,16.43
2023-02-09T02:42:29.912Z,14.63
2023-02-09T02:45:02.462Z,15.97
2023-02-09T02:47:32.562Z,15.27
2023-02-09T02:50:02.643Z,14.40
2023-02-09T02:52:30.561Z,13.90
2023-02-09T02:55:02.640Z,14.97
2023-02-09T02:57:32.816Z,13.73
2023-02-09T03:00:03.179Z,15.83
2023-02-09T03:02:35.214Z,15.67
2023-02-09T03:05:04.373Z,14.43
2023-02-09T03:07:32.837Z,14.57
2023-02-09T03:10:02.930Z,16.77
2023-02-09T03:12:37.134Z,18.43
2023-02-09T03:15:15.652Z,14.50
2023-02-09T03:17:48.653Z,16.90
2023-02-09T03:20:24.910Z,15.97
2023-02-09T03:22:58.010Z,14.43
2023-02-09T03:25:28.804Z,15.43
2023-02-09T03:28:01.133Z,15.87
2023-02-09T03:30:28.824Z,16.73
2023-02-09T03:32:57.898Z,13.87
2023-02-09T03:35:28.325Z,16.17
2023-02-09T03:37:55.936Z,14.90
2023-02-09T03:40:23.708Z,14.57
2023-02-09T03:42:51.379Z,14.40
2023-02-09T03:45:19.120Z,16.10
2023-02-09T03:47:46.750Z,17.90
2023-02-09T03:50:16.132Z,15.03
2023-02-09T03:52:43.732Z,12.20
2023-02-09T03:55:11.480Z,16.97
2023-02-09T03:57:39.106Z,16.97
2023-02-09T04:00:07.944Z,16.50
2023-02-09T04:02:35.565Z,18.10
2023-02-09T04:05:05.630Z,17.90
2023-02-09T04:07:35.041Z,14.37
2023-02-09T04:10:02.816Z,15.20
2023-02-09T04:12:30.441Z,19.80
2023-02-09T04:14:58.282Z,15.73
2023-02-09T04:17:25.843Z,14.83
2023-02-09T04:19:53.485Z,17.27
2023-02-09T04:22:21.278Z,16.47
2023-02-09T04:24:50.257Z,17.50
2023-02-09T04:27:17.849Z,17.27
2023-02-09T04:29:45.523Z,18.77
2023-02-09T04:32:13.105Z,16.63
2023-02-09T04:34:40.746Z,18.43
2023-02-09T04:37:08.307Z,15.13
2023-02-09T04:39:35.925Z,20.80
2023-02-09T04:42:04.975Z,18.63
2023-02-09T04:44:32.652Z,16.70
2023-02-09T04:47:00.211Z,15.93
2023-02-09T04:49:27.854Z,19.20
2023-02-09T04:51:55.629Z,18.00
2023-02-09T04:54:23.230Z,16.90
2023-02-09T04:57:11.054Z,19.10
2023-02-09T04:59:41.453Z,17.33
2023-02-09T05:02:08.991Z,20.53
2023-02-09T05:04:36.558Z,19.10
2023-02-09T05:07:04.317Z,18.57
2023-02-09T05:09:32.110Z,16.37
2023-02-09T05:11:59.660Z,22.60
2023-02-09T05:14:27.532Z,16.50
2023-02-09T05:16:56.633Z,17.30
2023-02-09T05:19:24.345Z,20.10
2023-02-09T05:21:51.978Z,18.10
2023-02-09T05:24:19.545Z,18.03
2023-02-09T05:26:47.225Z,19.37
2023-02-09T05:29:14.773Z,16.47
2023-02-09T05:31:42.566Z,19.57
2023-02-09T05:34:11.511Z,17.53
2023-02-09T05:36:39.140Z,20.07
2023-02-09T05:39:06.788Z,19.20
2023-02-09T05:41:57.077Z,17.70
2023-02-09T05:44:24.888Z,20.33
2023-02-09T05:46:52.574Z,16.47
2023-02-09T05:49:21.549Z,19.43
2023-02-09T05:51:49.115Z,17.93
2023-02-09T05:54:16.708Z,20.63
2023-02-09T05:56:44.724Z,20.20
2023-02-09T05:59:12.482Z,19.67
2023-02-09T06:01:40.525Z,18.57
2023-02-09T06:04:09.084Z,19.10
2023-02-09T06:06:38.549Z,17.57
2023-02-09T06:09:06.396Z,19.83
2023-02-09T06:11:34.122Z,16.83
2023-02-09T06:14:02.118Z,19.03
2023-02-09T06:16:29.918Z,17.07
2023-02-09T06:18:57.518Z,20.40
2023-02-09T06:21:25.081Z,17.97
2023-02-09T06:23:54.184Z,20.33
2023-02-09T06:28:51.198Z,18.73
2023-02-09T06:33:48.207Z,22.83
2023-02-09T06:36:15.894Z,21.67
2023-02-09T06:38:43.538Z,20.27
2023-02-09T06:41:12.751Z,18.60
2023-02-09T06:43:40.423Z,18.67
2023-02-09T06:46:08.608Z,22.87
2023-02-09T06:48:36.393Z,20.83
2023-02-09T06:51:08.489Z,21.50
2023-02-09T06:53:36.605Z,19.47
2023-02-09T06:56:04.643Z,22.20
2023-02-09T06:58:34.225Z,17.63
2023-02-09T07:01:05.176Z,21.17
2023-02-09T07:03:32.801Z,18.63
2023-02-09T07:06:04.543Z,23.37
2023-02-09T07:08:32.308Z,18.30
2023-02-09T07:11:02.711Z,23.43
2023-02-09T07:13:31.906Z,22.53
2023-02-09T07:16:02.189Z,16.93
2023-02-09T07:18:30.531Z,21.73
2023-02-09T07:20:59.517Z,20.40
2023-02-09T07:23:27.481Z,19.33
2023-02-09T07:25:55.574Z,22.53
2023-02-09T07:28:23.426Z,21.33
2023-02-09T07:30:52.917Z,23.00
2023-02-09T07:33:22.944Z,21.87
2023-02-09T07:35:50.631Z,24.03
2023-02-09T07:38:18.621Z,24.87
2023-02-09T07:40:46.704Z,21.10
2023-02-09T07:43:15.518Z,22.23
2023-02-09T07:45:44.146Z,23.83
2023-02-09T07:48:12.816Z,20.03
2023-02-09T07:50:42.011Z,19.50
2023-02-09T07:53:09.746Z,26.97
2023-02-09T07:55:37.338Z,17.30
2023-02-09T07:58:04.973Z,22.50
2023-02-09T08:00:32.557Z,20.73
2023-02-09T08:03:01.037Z,22.50
2023-02-09T08:05:32.065Z,19.53
2023-02-09T08:08:01.596Z,26.27
2023-02-09T08:10:29.486Z,20.87
2023-02-09T08:13:00.882Z,18.93
2023-02-09T08:15:36.064Z,22.63
2023-02-09T08:18:07.075Z,20.33
2023-02-09T08:20:35.432Z,21.23
2023-02-09T08:23:08.375Z,22.73
2023-02-09T08:25:37.124Z,22.97
2023-02-09T08:28:05.989Z,25.63
2023-02-09T08:30:35.148Z,26.33
2023-02-09T08:33:03.634Z,20.73
2023-02-09T08:35:31.446Z,25.07
2023-02-09T08:38:03.077Z,27.07
2023-02-09T08:40:32.798Z,25.47
2023-02-09T08:43:00.380Z,26.70
2023-02-09T08:45:28.680Z,24.07
2023-02-09T08:47:56.962Z,22.63
2023-02-09T08:50:24.619Z,23.17
2023-02-09T08:52:52.423Z,24.63
2023-02-09T08:55:20.199Z,24.10
2023-02-09T08:57:49.198Z,25.60
2023-02-09T09:00:17.720Z,25.53
2023-02-09T09:02:45.366Z,23.63
2023-02-09T09:05:13.103Z,24.97
2023-02-09T09:07:40.791Z,27.47
2023-02-09T09:10:09.858Z,22.43
2023-02-09T09:12:38.051Z,22.23
2023-02-09T09:15:07.958Z,21.67
2023-02-09T09:17:35.549Z,21.63
2023-02-09T09:20:03.284Z,19.47
2023-02-09T09:22:30.878Z,22.47
2023-02-09T09:24:58.499Z,19.83
2023-02-09T09:27:27.045Z,22.57
2023-02-09T09:29:55.048Z,21.80
2023-02-09T09:32:24.915Z,23.93
2023-02-09T09:34:53.519Z,19.93
2023-02-09T09:37:21.151Z,19.13
2023-02-09T09:39:49.058Z,16.43
2023-02-09T09:42:24.625Z,19.03
2023-02-09T09:44:52.805Z,15.77
2023-02-09T09:47:26.676Z,19.00
2023-02-09T09:49:54.391Z,17.93
2023-02-09T09:52:30.636Z,21.17
2023-02-09T09:54:59.044Z,18.93
2023-02-09T09:57:29.090Z,20.73
2023-02-09T09:59:57.253Z,19.77
2023-02-09T10:02:30.471Z,18.70
2023-02-09T10:05:03.683Z,21.87
2023-02-09T10:07:33.017Z,18.03
2023-02-09T10:10:03.928Z,19.37
2023-02-09T10:12:37.373Z,18.57
2023-02-09T10:15:25.120Z,22.13
2023-02-09T10:17:54.524Z,22.97
2023-02-09T10:20:41.078Z,18.97
2023-02-09T10:23:18.398Z,18.87
2023-02-09T10:26:03.455Z,21.27
2023-02-09T10:28:32.762Z,23.30
2023-02-09T10:31:03.129Z,20.00
2023-02-09T10:33:41.984Z,20.83
2023-02-09T10:36:23.665Z,17.00
2023-02-09T10:38:51.676Z,18.33
2023-02-09T10:41:19.698Z,21.60
2023-02-09T10:43:52.423Z,18.00
2023-02-09T10:46:21.413Z,16.43
2023-02-09T10:48:50.393Z,19.73
2023-02-09T10:51:28.918Z,20.37
2023-02-09T10:54:02.652Z,18.73
2023-02-09T10:56:35.865Z,16.97
2023-02-09T10:59:05.078Z,21.30
2023-02-09T11:01:34.344Z,20.60
2023-02-09T11:04:05.127Z,18.97
2023-02-09T11:06:36.813Z,18.17
2023-02-09T11:09:07.098Z,23.80
2023-02-09T11:11:36.995Z,21.57
2023-02-09T11:14:07.278Z,18.00
2023-02-09T11:16:51.920Z,20.40
2023-02-09T11:19:31.327Z,23.37
2023-02-09T11:22:07.987Z,20.10
2023-02-09T11:24:49.724Z,22.50
2023-02-09T11:27:28.924Z,19.83
2023-02-09T11:30:05.941Z,21.43
2023-02-09T11:32:36.853Z,20.67
2023-02-09T11:35:10.868Z,20.83
2023-02-09T11:37:46.621Z,21.17
2023-02-09T11:40:23.446Z,21.10
2023-02-09T11:42:57.007Z,18.27
2023-02-09T11:45:30.597Z,20.83
2023-02-09T11:48:03.941Z,21.97
2023-02-09T11:50:36.870Z,20.33
2023-02-09T11:53:07.463Z,20.10
2023-02-09T11:55:40.297Z,23.53
2023-02-09T11:58:15.925Z,21.13
2023-02-09T12:00:55.980Z,20.63
2023-02-09T12:03:25.426Z,19.20
2023-02-09T12:05:55.040Z,23.30
2023-02-09T12:08:35.872Z,21.60
2023-02-09T12:11:21.515Z,17.97
2023-02-09T12:14:02.968Z,21.00
2023-02-09T12:16:34.082Z,22.73
2023-02-09T12:19:02.871Z,19.83
2023-02-09T12:21:33.916Z,19.73
2023-02-09T12:24:02.430Z,20.67
2023-02-09T12:26:40.681Z,18.03
2023-02-09T12:29:26.920Z,22.23
2023-02-09T12:32:38.389Z,19.60
2023-02-09T12:35:26.887Z,17.13
2023-02-09T12:38:16.843Z,19.10
2023-02-09T12:40:45.042Z,20.17
2023-02-09T12:43:30.999Z,18.93
2023-02-09T12:46:13.973Z,19.70
2023-02-09T12:49:04.230Z,18.63
2023-02-09T12:51:45.587Z,17.77
2023-02-09T12:54:32.376Z,18.20
2023-02-09T12:57:29.697Z,20.87
2023-02-09T13:00:32.395Z,18.20
2023-02-09T13:03:11.690Z,18.10
2023-02-09T13:05:44.569Z,16.73
2023-02-09T13:08:17.359Z,16.50
2023-02-09T13:10:52.216Z,18.03
2023-02-09T13:13:22.582Z,18.77
2023-02-09T13:15:56.094Z,17.50
2023-02-09T13:18:29.505Z,17.57
2023-02-09T13:21:05.632Z,15.77
2023-02-09T13:23:38.391Z,17.93
2023-02-09T13:26:19.515Z,18.90
2023-02-09T13:28:47.850Z,17.87
2023-02-09T13:31:26.210Z,18.57
2023-02-09T13:33:57.366Z,20.20
2023-02-09T13:36:32.481Z,16.47
2023-02-09T13:39:00.185Z,17.23
2023-02-09T13:41:36.152Z,16.10
2023-02-09T13:44:04.032Z,16.83
2023-02-09T13:46:35.176Z,17.70
2023-02-09T13:49:13.215Z,19.20
2023-02-09T13:51:42.739Z,18.80
2023-02-09T13:54:19.632Z,18.07
2023-02-09T13:56:48.719Z,21.10
2023-02-09T13:59:17.687Z,18.63
2023-02-09T14:01:47.143Z,19.23
2023-02-09T14:04:19.066Z,18.67
2023-02-09T14:06:49.597Z,20.83
2023-02-09T14:09:20.440Z,20.93
2023-02-09T14:11:52.293Z,20.10
2023-02-09T14:14:23.883Z,17.20
2023-02-09T14:17:24.301Z,16.87
2023-02-09T14:19:53.458Z,22.60
2023-02-09T14:22:29.492Z,21.23
2023-02-09T14:24:57.232Z,20.17
2023-02-09T14:27:27.789Z,17.73
2023-02-09T14:29:55.844Z,18.23
2023-02-09T14:32:32.355Z,21.33
2023-02-09T14:35:09.885Z,19.73
2023-02-09T14:37:38.068Z,18.53
2023-02-09T14:40:21.924Z,21.07
2023-02-09T14:43:05.412Z,23.17
2023-02-09T14:45:38.884Z,20.33
2023-02-09T14:48:18.267Z,18.27
2023-02-09T14:50:45.880Z,16.70
2023-02-09T14:53:15.774Z,18.50
2023-02-09T14:55:44.552Z,20.07
2023-02-09T14:58:19.473Z,18.10
2023-02-09T15:00:47.266Z,16.23
2023-02-09T15:03:14.816Z,19.03
2023-02-09T15:05:42.543Z,18.80
2023-02-09T15:08:12.621Z,17.27
2023-02-09T15:10:44.190Z,18.63
2023-02-09T15:13:14.303Z,18.80
2023-02-09T15:15:42.108Z,19.30
2023-02-09T15:18:18.973Z,18.93
2023-02-09T15:20:46.968Z,18.10
2023-02-09T15:23:14.741Z,17.60
2023-02-09T15:25:43.049Z,19.80
2023-02-09T15:28:19.206Z,20.27
2023-02-09T15:30:47.277Z,19.80
2023-02-09T15:33:15.080Z,19.13
2023-02-09T15:35:42.785Z,19.13
2023-02-09T15:38:11.226Z,19.73
2023-02-09T15:41:00.424Z,19.33
2023-02-09T15:43:47.215Z,20.83
2023-02-09T15:46:32.667Z,18.57
2023-02-09T15:49:00.749Z,20.43
2023-02-09T15:51:33.928Z,18.43
2023-02-09T15:54:03.921Z,21.10
2023-02-09T15:56:31.684Z,22.40
2023-02-09T15:59:03.864Z,20.70
2023-02-09T16:01:33.850Z,20.90
2023-02-09T16:04:13.503Z,22.27
2023-02-09T16:06:43.606Z,20.23
2023-02-09T16:09:12.060Z,20.43
2023-02-09T16:11:42.026Z,20.53
2023-02-09T16:14:16.205Z,20.07
2023-02-09T16:16:45.870Z,22.30
2023-02-09T16:19:13.695Z,23.20
2023-02-09T16:21:43.867Z,27.23
2023-02-09T16:24:17.903Z,22.70
2023-02-09T16:26:45.656Z,22.23
2023-02-09T16:29:15.278Z,22.43
2023-02-09T16:31:43.099Z,22.07
2023-02-09T16:34:15.392Z,23.43
2023-02-09T16:36:43.910Z,23.03
2023-02-09T16:39:17.113Z,22.40
2023-02-09T16:41:48.126Z,22.67
2023-02-09T16:44:20.302Z,31.50
2023-02-09T16:46:49.763Z,26.57
2023-02-09T16:49:29.326Z,22.93
2023-02-09T16:51:58.033Z,28.40
2023-02-09T16:54:25.704Z,27.13
2023-02-09T16:56:54.461Z,23.60
2023-02-09T16:59:23.736Z,29.73
2023-02-09T17:01:51.757Z,24.93
2023-02-09T17:04:19.465Z,25.20
2023-02-09T17:06:49.022Z,26.40
2023-02-09T17:09:17.295Z,28.83
2023-02-09T17:11:45.030Z,25.87
2023-02-09T17:14:12.785Z,23.40
2023-02-09T17:16:44.971Z,27.67
2023-02-09T17:19:18.993Z,31.03
2023-02-09T17:21:46.977Z,25.23
2023-02-09T17:24:16.986Z,56.87
2023-02-09T17:26:45.447Z,37.97
2023-02-09T17:29:13.313Z,34.67
2023-02-09T17:31:52.930Z,28.67
2023-02-09T17:34:26.859Z,26.90
2023-02-09T17:36:54.437Z,26.20
2023-02-09T17:39:22.011Z,26.07
2023-02-09T17:41:49.972Z,27.50
2023-02-09T17:44:35.335Z,27.60
2023-02-09T17:47:10.152Z,27.73
2023-02-09T17:49:37.678Z,30.47
2023-02-09T17:52:05.563Z,27.50
2023-02-09T17:54:33.857Z,30.80
2023-02-09T17:57:01.385Z,32.43
2023-02-09T17:59:28.980Z,32.13
2023-02-09T18:01:58.771Z,29.43
2023-02-09T18:04:28.640Z,38.67
2023-02-09T18:06:57.859Z,27.83
2023-02-09T18:09:25.625Z,30.17
2023-02-09T18:11:59.610Z,29.87
2023-02-09T18:14:28.060Z,30.77
2023-02-09T18:16:56.005Z,35.37
2023-02-09T18:19:24.664Z,38.20
2023-02-09T18:21:55.515Z,40.17
2023-02-09T18:24:25.204Z,34.80
2023-02-09T18:26:52.851Z,34.53
2023-02-09T18:29:22.736Z,37.57
2023-02-09T18:31:50.466Z,33.20
2023-02-09T18:34:18.148Z,35.50
2023-02-09T18:36:46.017Z,36.33
2023-02-09T18:39:16.838Z,40.93
2023-02-09T18:41:46.309Z,38.93
2023-02-09T18:44:13.927Z,33.83
2023-02-09T18:46:43.056Z,30.63
2023-02-09T18:49:12.482Z,33.07
2023-02-09T18:51:40.102Z,29.57
2023-02-09T18:54:07.685Z,30.67
2023-02-09T18:56:36.792Z,30.67
2023-02-09T18:59:04.587Z,30.53
2023-02-09T19:01:32.430Z,31.27
2023-02-09T19:04:00.202Z,32.13
2023-02-09T19:06:27.863Z,27.87
2023-02-09T19:08:55.627Z,32.83
2023-02-09T19:11:24.750Z,30.23
2023-02-09T19:14:11.169Z,28.90
2023-02-09T19:16:40.934Z,27.27
2023-02-09T19:19:09.803Z,29.63
2023-02-09T19:21:37.472Z,34.03
2023-02-09T19:24:05.482Z,32.07
2023-02-09T19:26:33.249Z,35.90
2023-02-09T19:29:02.274Z,36.70
2023-02-09T19:31:29.992Z,39.30
2023-02-09T19:33:58.402Z,36.13
2023-02-09T19:36:27.847Z,34.13
2023-02-09T19:38:55.954Z,36.70
2023-02-09T19:41:25.484Z,32.87
2023-02-09T19:43:55.813Z,30.67
2023-02-09T19:46:25.059Z,34.10
2023-02-09T19:48:53.650Z,31.33
2023-02-09T19:51:21.331Z,30.73
2023-02-09T19:53:48.944Z,29.93
2023-02-09T19:56:17.285Z,30.10
2023-02-09T19:58:44.894Z,27.27
2023-02-09T20:01:12.881Z,32.50
2023-02-09T20:03:41.881Z,30.43
2023-02-09T20:06:11.183Z,31.37
2023-02-09T20:08:39.357Z,28.40
2023-02-09T20:11:07.909Z,30.30
2023-02-09T20:13:36.199Z,29.07
2023-02-09T20:16:08.411Z,30.93
2023-02-09T20:18:36.033Z,28.57
2023-02-09T20:21:07.537Z,32.70
2023-02-09T20:23:35.116Z,27.47
2023-02-09T20:26:02.766Z,30.83
2023-02-09T20:28:30.440Z,27.33
2023-02-09T20:30:58.003Z,27.40
2023-02-09T20:33:26.486Z,28.43
2023-02-09T20:35:54.105Z,29.27
2023-02-09T20:38:23.028Z,30.40
2023-02-09T20:40:50.585Z,30.33
2023-02-09T20:43:35.994Z,29.20
2023-02-09T20:46:23.465Z,32.67
2023-02-09T20:48:52.203Z,33.97
2023-02-09T20:51:20.203Z,40.00
2023-02-09T20:53:49.260Z,36.33
2023-02-09T20:56:17.079Z,34.00
2023-02-09T20:58:45.777Z,38.43
2023-02-09T21:01:15.791Z,40.50
2023-02-09T21:03:43.512Z,37.60
2023-02-09T21:06:13.415Z,34.93
2023-02-09T21:08:41.407Z,33.43
2023-02-09T21:11:10.673Z,34.27
2023-02-09T21:13:41.105Z,35.10
2023-02-09T21:16:09.419Z,32.60
2023-02-09T21:18:37.708Z,32.43
2023-02-09T21:21:06.093Z,33.23
2023-02-09T21:23:33.845Z,32.63
2023-02-09T21:26:03.172Z,33.50
2023-02-09T21:28:32.572Z,33.40
2023-02-09T21:31:00.738Z,35.23
2023-02-09T21:33:28.808Z,32.80
2023-02-09T21:35:56.750Z,31.10
2023-02-09T21:38:25.245Z,34.53
2023-02-09T21:40:52.856Z,32.87
2023-02-09T21:43:20.450Z,35.97
2023-02-09T21:45:49.634Z,31.20
2023-02-09T21:48:17.263Z,32.30
2023-02-09T21:50:45.018Z,31.10
2023-02-09T21:53:12.672Z,32.87
2023-02-09T21:55:41.197Z,30.67
2023-02-09T21:58:08.849Z,30.53
2023-02-09T22:00:36.514Z,32.17
2023-02-09T22:03:08.647Z,30.47
2023-02-09T22:05:36.522Z,37.00
2023-02-09T22:08:04.241Z,28.93
2023-02-09T22:10:31.923Z,29.97
2023-02-09T22:12:59.595Z,29.03
2023-02-09T22:15:27.289Z,30.20
2023-02-09T22:17:54.890Z,30.07
2023-02-09T22:20:23.838Z,28.60
2023-02-09T22:22:51.461Z,27.53
2023-02-09T22:25:19.246Z,26.93
2023-02-09T22:27:46.871Z,30.83
2023-02-09T22:30:14.696Z,29.93
2023-02-09T22:32:42.327Z,27.43
2023-02-09T22:35:10.111Z,29.83
2023-02-09T22:37:39.048Z,29.27
2023-02-09T22:40:07.237Z,28.93
2023-02-09T22:42:34.877Z,26.90
2023-02-09T22:45:02.548Z,32.23
2023-02-09T22:47:30.373Z,27.50
2023-02-09T22:49:58.373Z,28.23
2023-02-09T22:52:25.962Z,34.53
2023-02-09T22:54:54.880Z,26.77
2023-02-09T22:57:22.512Z,27.07
2023-02-09T22:59:50.119Z,30.27
2023-02-09T23:02:17.742Z,28.37
2023-02-09T23:04:45.406Z,24.80
2023-02-09T23:07:13.024Z,30.37
2023-02-09T23:09:40.628Z,28.03
2023-02-09T23:12:09.666Z,32.47
2023-02-09T23:14:37.307Z,23.10
2023-02-09T23:17:04.893Z,29.40
2023-02-09T23:19:32.561Z,29.17
2023-02-09T23:22:00.887Z,24.80
2023-02-09T23:24:29.020Z,25.03
2023-02-09T23:26:57.674Z,24.30
2023-02-09T23:29:28.324Z,25.63
2023-02-09T23:31:56.135Z,26.50
2023-02-09T23:34:23.932Z,25.83
2023-02-09T23:36:52.289Z,24.63
2023-02-09T23:39:22.238Z,23.93
2023-02-09T23:41:49.830Z,23.43
2023-02-09T23:44:17.522Z,23.67
2023-02-09T23:46:47.018Z,23.30
2023-02-09T23:49:14.657Z,23.27
2023-02-09T23:51:42.428Z,22.20
2023-02-09T23:54:11.655Z,21.57
2023-02-09T23:56:39.666Z,21.00
2023-02-09T23:59:09.034Z,27.90
